sensor_id;sensor_type;location;lat;lon;timestamp;P1;durP1;ratioP1;P2;durP2;ratioP2
81697;SDS011;71109;52.514;5.708;2024-02-26T00:00:22;22.10;;;10.32;;
81697;SDS011;71109;52.514;5.708;2024-02-26T00:02:47;23.67;;;9.98;;
81697;SDS011;71109;52.514;5.708;2024-02-26T00:05:13;17.80;;;8.13;;
81697;SDS011;71109;52.514;5.708;2024-02-26T00:07:38;21.47;;;8.40;;
81697;SDS011;71109;52.514;5.708;2024-02-26T00:10:04;19.42;;;9.60;;
81697;SDS011;71109;52.514;5.708;2024-02-26T00:12:30;15.70;;;9.57;;
81697;SDS011;71109;52.514;5.708;2024-02-26T00:14:55;14.55;;;7.05;;
81697;SDS011;71109;52.514;5.708;2024-02-26T00:17:23;14.07;;;7.65;;
81697;SDS011;71109;52.514;5.708;2024-02-26T00:19:49;16.13;;;7.15;;
81697;SDS011;71109;52.514;5.708;2024-02-26T00:22:14;13.38;;;6.82;;
81697;SDS011;71109;52.514;5.708;2024-02-26T00:24:40;15.10;;;7.47;;
81697;SDS011;71109;52.514;5.708;2024-02-26T00:27:06;13.18;;;6.72;;
81697;SDS011;71109;52.514;5.708;2024-02-26T00:29:31;14.18;;;7.40;;
81697;SDS011;71109;52.514;5.708;2024-02-26T00:31:57;13.00;;;6.97;;
81697;SDS011;71109;52.514;5.708;2024-02-26T00:34:22;16.20;;;7.72;;
81697;SDS011;71109;52.514;5.708;2024-02-26T00:36:48;16.48;;;8.55;;
81697;SDS011;71109;52.514;5.708;2024-02-26T00:39:13;20.00;;;9.23;;
81697;SDS011;71109;52.514;5.708;2024-02-26T00:41:39;19.13;;;9.33;;
81697;SDS011;71109;52.514;5.708;2024-02-26T00:44:05;19.13;;;8.77;;
81697;SDS011;71109;52.514;5.708;2024-02-26T00:46:30;20.37;;;8.53;;
81697;SDS011;71109;52.514;5.708;2024-02-26T00:48:56;17.63;;;7.77;;
81697;SDS011;71109;52.514;5.708;2024-02-26T00:51:21;20.70;;;9.95;;
81697;SDS011;71109;52.514;5.708;2024-02-26T00:53:46;17.90;;;9.10;;
81697;SDS011;71109;52.514;5.708;2024-02-26T00:56:11;20.00;;;8.27;;
81697;SDS011;71109;52.514;5.708;2024-02-26T00:58:37;23.43;;;11.90;;
81697;SDS011;71109;52.514;5.708;2024-02-26T01:01:02;26.60;;;9.70;;
81697;SDS011;71109;52.514;5.708;2024-02-26T01:03:28;25.75;;;11.05;;
81697;SDS011;71109;52.514;5.708;2024-02-26T01:05:53;20.13;;;9.68;;
81697;SDS011;71109;52.514;5.708;2024-02-26T01:08:18;24.75;;;10.27;;
81697;SDS011;71109;52.514;5.708;2024-02-26T01:10:44;22.83;;;11.10;;
81697;SDS011;71109;52.514;5.708;2024-02-26T01:13:09;23.40;;;9.75;;
81697;SDS011;71109;52.514;5.708;2024-02-26T01:15:35;29.38;;;11.68;;
81697;SDS011;71109;52.514;5.708;2024-02-26T01:18:00;21.58;;;10.10;;
81697;SDS011;71109;52.514;5.708;2024-02-26T01:20:25;23.70;;;10.23;;
81697;SDS011;71109;52.514;5.708;2024-02-26T01:22:51;25.37;;;11.17;;
81697;SDS011;71109;52.514;5.708;2024-02-26T01:25:16;26.25;;;11.35;;
81697;SDS011;71109;52.514;5.708;2024-02-26T01:27:41;23.93;;;11.43;;
81697;SDS011;71109;52.514;5.708;2024-02-26T01:30:08;25.85;;;11.93;;
81697;SDS011;71109;52.514;5.708;2024-02-26T01:32:34;21.77;;;10.52;;
81697;SDS011;71109;52.514;5.708;2024-02-26T01:35:01;28.27;;;11.32;;
81697;SDS011;71109;52.514;5.708;2024-02-26T01:37:28;21.48;;;10.32;;
81697;SDS011;71109;52.514;5.708;2024-02-26T01:39:54;28.10;;;12.27;;
81697;SDS011;71109;52.514;5.708;2024-02-26T01:42:20;28.10;;;11.15;;
81697;SDS011;71109;52.514;5.708;2024-02-26T01:44:45;21.77;;;10.60;;
81697;SDS011;71109;52.514;5.708;2024-02-26T01:47:11;26.30;;;10.33;;
81697;SDS011;71109;52.514;5.708;2024-02-26T01:49:37;27.10;;;10.93;;
81697;SDS011;71109;52.514;5.708;2024-02-26T01:52:03;25.10;;;11.32;;
81697;SDS011;71109;52.514;5.708;2024-02-26T01:54:29;21.25;;;9.90;;
81697;SDS011;71109;52.514;5.708;2024-02-26T01:56:55;24.20;;;11.30;;
81697;SDS011;71109;52.514;5.708;2024-02-26T01:59:21;22.20;;;10.10;;
81697;SDS011;71109;52.514;5.708;2024-02-26T02:01:48;33.33;;;12.63;;
81697;SDS011;71109;52.514;5.708;2024-02-26T02:04:19;28.45;;;11.93;;
81697;SDS011;71109;52.514;5.708;2024-02-26T02:06:45;27.70;;;11.35;;
81697;SDS011;71109;52.514;5.708;2024-02-26T02:09:11;27.17;;;11.32;;
81697;SDS011;71109;52.514;5.708;2024-02-26T02:11:36;26.50;;;10.65;;
81697;SDS011;71109;52.514;5.708;2024-02-26T02:14:02;26.05;;;10.57;;
81697;SDS011;71109;52.514;5.708;2024-02-26T02:16:27;29.42;;;12.27;;
81697;SDS011;71109;52.514;5.708;2024-02-26T02:18:53;23.65;;;10.93;;
81697;SDS011;71109;52.514;5.708;2024-02-26T02:21:19;26.00;;;11.80;;
81697;SDS011;71109;52.514;5.708;2024-02-26T02:23:44;30.13;;;12.40;;
81697;SDS011;71109;52.514;5.708;2024-02-26T02:26:11;34.33;;;12.57;;
81697;SDS011;71109;52.514;5.708;2024-02-26T02:28:37;28.13;;;10.65;;
81697;SDS011;71109;52.514;5.708;2024-02-26T02:31:03;27.00;;;11.50;;
81697;SDS011;71109;52.514;5.708;2024-02-26T02:33:29;30.08;;;11.30;;
81697;SDS011;71109;52.514;5.708;2024-02-26T02:35:54;26.40;;;10.75;;
81697;SDS011;71109;52.514;5.708;2024-02-26T02:38:20;24.92;;;10.10;;
81697;SDS011;71109;52.514;5.708;2024-02-26T02:40:46;24.95;;;11.75;;
81697;SDS011;71109;52.514;5.708;2024-02-26T02:43:11;35.83;;;12.00;;
81697;SDS011;71109;52.514;5.708;2024-02-26T02:45:36;28.00;;;10.60;;
81697;SDS011;71109;52.514;5.708;2024-02-26T02:48:02;27.02;;;12.30;;
81697;SDS011;71109;52.514;5.708;2024-02-26T02:50:27;25.85;;;11.60;;
81697;SDS011;71109;52.514;5.708;2024-02-26T02:52:54;29.48;;;11.38;;
81697;SDS011;71109;52.514;5.708;2024-02-26T02:55:19;29.25;;;11.07;;
81697;SDS011;71109;52.514;5.708;2024-02-26T02:57:45;29.08;;;10.85;;
81697;SDS011;71109;52.514;5.708;2024-02-26T03:00:10;34.00;;;12.45;;
81697;SDS011;71109;52.514;5.708;2024-02-26T03:02:36;25.08;;;10.80;;
81697;SDS011;71109;52.514;5.708;2024-02-26T03:05:04;32.13;;;11.80;;
81697;SDS011;71109;52.514;5.708;2024-02-26T03:07:30;24.65;;;9.82;;
81697;SDS011;71109;52.514;5.708;2024-02-26T03:09:55;28.88;;;13.23;;
81697;SDS011;71109;52.514;5.708;2024-02-26T03:12:21;25.77;;;11.13;;
81697;SDS011;71109;52.514;5.708;2024-02-26T03:14:46;30.92;;;11.65;;
81697;SDS011;71109;52.514;5.708;2024-02-26T03:17:11;27.33;;;11.13;;
81697;SDS011;71109;52.514;5.708;2024-02-26T03:19:37;23.60;;;11.38;;
81697;SDS011;71109;52.514;5.708;2024-02-26T03:22:02;29.27;;;10.90;;
81697;SDS011;71109;52.514;5.708;2024-02-26T03:24:28;26.63;;;11.10;;
81697;SDS011;71109;52.514;5.708;2024-02-26T03:26:53;32.73;;;12.23;;
81697;SDS011;71109;52.514;5.708;2024-02-26T03:29:18;27.95;;;12.52;;
81697;SDS011;71109;52.514;5.708;2024-02-26T03:31:44;30.13;;;12.05;;
81697;SDS011;71109;52.514;5.708;2024-02-26T03:34:09;33.15;;;12.93;;
81697;SDS011;71109;52.514;5.708;2024-02-26T03:36:36;31.08;;;13.05;;
81697;SDS011;71109;52.514;5.708;2024-02-26T03:39:02;31.35;;;12.82;;
81697;SDS011;71109;52.514;5.708;2024-02-26T03:41:32;25.95;;;10.75;;
81697;SDS011;71109;52.514;5.708;2024-02-26T03:43:57;30.98;;;11.90;;
81697;SDS011;71109;52.514;5.708;2024-02-26T03:46:23;32.08;;;13.18;;
81697;SDS011;71109;52.514;5.708;2024-02-26T03:48:48;32.33;;;12.48;;
81697;SDS011;71109;52.514;5.708;2024-02-26T03:51:13;28.07;;;11.10;;
81697;SDS011;71109;52.514;5.708;2024-02-26T03:53:39;29.90;;;11.67;;
81697;SDS011;71109;52.514;5.708;2024-02-26T03:56:05;25.40;;;11.93;;
81697;SDS011;71109;52.514;5.708;2024-02-26T03:58:30;27.73;;;12.02;;
81697;SDS011;71109;52.514;5.708;2024-02-26T04:00:56;33.90;;;13.30;;
81697;SDS011;71109;52.514;5.708;2024-02-26T04:03:21;39.22;;;13.98;;
81697;SDS011;71109;52.514;5.708;2024-02-26T04:05:47;38.40;;;12.47;;
81697;SDS011;71109;52.514;5.708;2024-02-26T04:08:12;39.47;;;12.90;;
81697;SDS011;71109;52.514;5.708;2024-02-26T04:10:37;34.70;;;13.43;;
81697;SDS011;71109;52.514;5.708;2024-02-26T04:13:04;43.10;;;15.85;;
81697;SDS011;71109;52.514;5.708;2024-02-26T04:15:29;38.47;;;12.80;;
81697;SDS011;71109;52.514;5.708;2024-02-26T04:17:55;37.22;;;13.15;;
81697;SDS011;71109;52.514;5.708;2024-02-26T04:20:20;35.10;;;14.48;;
81697;SDS011;71109;52.514;5.708;2024-02-26T04:22:46;41.67;;;15.88;;
81697;SDS011;71109;52.514;5.708;2024-02-26T04:25:11;35.22;;;12.43;;
81697;SDS011;71109;52.514;5.708;2024-02-26T04:27:37;48.47;;;15.93;;
81697;SDS011;71109;52.514;5.708;2024-02-26T04:30:03;42.88;;;15.77;;
81697;SDS011;71109;52.514;5.708;2024-02-26T04:32:29;38.58;;;15.18;;
81697;SDS011;71109;52.514;5.708;2024-02-26T04:34:55;42.20;;;14.98;;
81697;SDS011;71109;52.514;5.708;2024-02-26T04:37:20;50.08;;;18.88;;
81697;SDS011;71109;52.514;5.708;2024-02-26T04:39:46;42.78;;;14.82;;
81697;SDS011;71109;52.514;5.708;2024-02-26T04:42:11;35.90;;;14.48;;
81697;SDS011;71109;52.514;5.708;2024-02-26T04:44:37;40.53;;;14.98;;
81697;SDS011;71109;52.514;5.708;2024-02-26T04:47:02;41.30;;;16.77;;
81697;SDS011;71109;52.514;5.708;2024-02-26T04:49:27;46.13;;;17.08;;
81697;SDS011;71109;52.514;5.708;2024-02-26T04:51:53;49.67;;;17.45;;
81697;SDS011;71109;52.514;5.708;2024-02-26T04:54:19;45.30;;;16.20;;
81697;SDS011;71109;52.514;5.708;2024-02-26T04:56:44;43.08;;;16.10;;
81697;SDS011;71109;52.514;5.708;2024-02-26T04:59:10;47.35;;;18.27;;
81697;SDS011;71109;52.514;5.708;2024-02-26T05:01:35;36.15;;;13.73;;
81697;SDS011;71109;52.514;5.708;2024-02-26T05:04:01;42.47;;;15.68;;
81697;SDS011;71109;52.514;5.708;2024-02-26T05:06:28;42.35;;;17.02;;
81697;SDS011;71109;52.514;5.708;2024-02-26T05:08:54;41.85;;;16.60;;
81697;SDS011;71109;52.514;5.708;2024-02-26T05:11:19;44.58;;;16.90;;
81697;SDS011;71109;52.514;5.708;2024-02-26T05:13:44;50.47;;;19.05;;
81697;SDS011;71109;52.514;5.708;2024-02-26T05:16:10;37.13;;;15.20;;
81697;SDS011;71109;52.514;5.708;2024-02-26T05:18:36;47.72;;;18.92;;
81697;SDS011;71109;52.514;5.708;2024-02-26T05:21:01;51.13;;;18.60;;
81697;SDS011;71109;52.514;5.708;2024-02-26T05:23:28;51.85;;;19.40;;
81697;SDS011;71109;52.514;5.708;2024-02-26T05:25:54;46.97;;;17.98;;
81697;SDS011;71109;52.514;5.708;2024-02-26T05:28:19;41.83;;;16.52;;
81697;SDS011;71109;52.514;5.708;2024-02-26T05:30:45;57.05;;;19.17;;
81697;SDS011;71109;52.514;5.708;2024-02-26T05:33:11;49.47;;;18.10;;
81697;SDS011;71109;52.514;5.708;2024-02-26T05:35:37;41.30;;;15.85;;
81697;SDS011;71109;52.514;5.708;2024-02-26T05:38:02;42.53;;;17.55;;
81697;SDS011;71109;52.514;5.708;2024-02-26T05:40:29;43.03;;;16.75;;
81697;SDS011;71109;52.514;5.708;2024-02-26T05:42:55;47.42;;;16.73;;
81697;SDS011;71109;52.514;5.708;2024-02-26T05:45:20;53.25;;;17.52;;
81697;SDS011;71109;52.514;5.708;2024-02-26T05:47:47;47.92;;;18.83;;
81697;SDS011;71109;52.514;5.708;2024-02-26T05:50:12;43.53;;;17.10;;
81697;SDS011;71109;52.514;5.708;2024-02-26T05:52:39;35.97;;;14.52;;
81697;SDS011;71109;52.514;5.708;2024-02-26T05:55:05;36.05;;;15.77;;
81697;SDS011;71109;52.514;5.708;2024-02-26T05:57:31;42.97;;;17.02;;
81697;SDS011;71109;52.514;5.708;2024-02-26T05:59:57;46.30;;;17.92;;
81697;SDS011;71109;52.514;5.708;2024-02-26T06:02:25;38.70;;;15.90;;
81697;SDS011;71109;52.514;5.708;2024-02-26T06:04:51;34.92;;;15.00;;
81697;SDS011;71109;52.514;5.708;2024-02-26T06:07:16;36.13;;;14.23;;
81697;SDS011;71109;52.514;5.708;2024-02-26T06:09:41;35.60;;;14.07;;
81697;SDS011;71109;52.514;5.708;2024-02-26T06:12:07;34.97;;;14.63;;
81697;SDS011;71109;52.514;5.708;2024-02-26T06:14:32;33.88;;;14.65;;
81697;SDS011;71109;52.514;5.708;2024-02-26T06:16:58;31.20;;;13.52;;
81697;SDS011;71109;52.514;5.708;2024-02-26T06:19:23;31.70;;;12.35;;
81697;SDS011;71109;52.514;5.708;2024-02-26T06:21:48;31.38;;;12.57;;
81697;SDS011;71109;52.514;5.708;2024-02-26T06:24:15;28.15;;;11.40;;
81697;SDS011;71109;52.514;5.708;2024-02-26T06:26:40;28.45;;;12.82;;
81697;SDS011;71109;52.514;5.708;2024-02-26T06:29:05;25.97;;;12.60;;
81697;SDS011;71109;52.514;5.708;2024-02-26T06:31:31;27.57;;;13.23;;
81697;SDS011;71109;52.514;5.708;2024-02-26T06:33:56;37.73;;;12.60;;
81697;SDS011;71109;52.514;5.708;2024-02-26T06:36:22;37.73;;;15.23;;
81697;SDS011;71109;52.514;5.708;2024-02-26T06:38:47;28.15;;;13.77;;
81697;SDS011;71109;52.514;5.708;2024-02-26T06:41:14;28.10;;;11.38;;
81697;SDS011;71109;52.514;5.708;2024-02-26T06:43:39;26.30;;;12.40;;
81697;SDS011;71109;52.514;5.708;2024-02-26T06:46:05;26.17;;;10.60;;
81697;SDS011;71109;52.514;5.708;2024-02-26T06:48:31;23.33;;;10.68;;
81697;SDS011;71109;52.514;5.708;2024-02-26T06:50:56;24.10;;;10.60;;
81697;SDS011;71109;52.514;5.708;2024-02-26T06:53:21;16.85;;;8.25;;
81697;SDS011;71109;52.514;5.708;2024-02-26T06:55:47;20.37;;;8.83;;
81697;SDS011;71109;52.514;5.708;2024-02-26T06:58:14;25.58;;;10.13;;
81697;SDS011;71109;52.514;5.708;2024-02-26T07:00:40;21.52;;;9.05;;
81697;SDS011;71109;52.514;5.708;2024-02-26T07:03:05;22.07;;;9.47;;
81697;SDS011;71109;52.514;5.708;2024-02-26T07:05:30;21.73;;;8.23;;
81697;SDS011;71109;52.514;5.708;2024-02-26T07:07:56;21.75;;;10.43;;
81697;SDS011;71109;52.514;5.708;2024-02-26T07:10:21;23.60;;;10.13;;
81697;SDS011;71109;52.514;5.708;2024-02-26T07:12:46;20.53;;;8.73;;
81697;SDS011;71109;52.514;5.708;2024-02-26T07:15:12;20.07;;;9.33;;
81697;SDS011;71109;52.514;5.708;2024-02-26T07:17:37;19.55;;;8.45;;
81697;SDS011;71109;52.514;5.708;2024-02-26T07:20:04;20.52;;;8.90;;
81697;SDS011;71109;52.514;5.708;2024-02-26T07:22:30;22.77;;;9.07;;
81697;SDS011;71109;52.514;5.708;2024-02-26T07:24:55;18.23;;;7.28;;
81697;SDS011;71109;52.514;5.708;2024-02-26T07:27:21;15.73;;;7.37;;
81697;SDS011;71109;52.514;5.708;2024-02-26T07:29:46;17.45;;;7.22;;
81697;SDS011;71109;52.514;5.708;2024-02-26T07:32:11;13.55;;;6.00;;
81697;SDS011;71109;52.514;5.708;2024-02-26T07:34:37;15.23;;;6.47;;
81697;SDS011;71109;52.514;5.708;2024-02-26T07:37:06;17.83;;;7.95;;
81697;SDS011;71109;52.514;5.708;2024-02-26T07:39:32;16.40;;;5.93;;
81697;SDS011;71109;52.514;5.708;2024-02-26T07:41:57;15.13;;;6.13;;
81697;SDS011;71109;52.514;5.708;2024-02-26T07:44:22;14.90;;;6.57;;
81697;SDS011;71109;52.514;5.708;2024-02-26T07:46:48;18.30;;;7.13;;
81697;SDS011;71109;52.514;5.708;2024-02-26T07:49:13;13.00;;;6.13;;
81697;SDS011;71109;52.514;5.708;2024-02-26T07:51:38;13.87;;;5.43;;
81697;SDS011;71109;52.514;5.708;2024-02-26T07:54:04;11.00;;;5.40;;
81697;SDS011;71109;52.514;5.708;2024-02-26T07:56:29;12.50;;;5.93;;
81697;SDS011;71109;52.514;5.708;2024-02-26T07:58:54;10.13;;;4.47;;
81697;SDS011;71109;52.514;5.708;2024-02-26T08:01:20;10.77;;;4.37;;
81697;SDS011;71109;52.514;5.708;2024-02-26T08:03:45;15.53;;;5.57;;
81697;SDS011;71109;52.514;5.708;2024-02-26T08:06:10;12.53;;;5.83;;
81697;SDS011;71109;52.514;5.708;2024-02-26T08:08:36;12.40;;;5.33;;
81697;SDS011;71109;52.514;5.708;2024-02-26T08:11:01;8.57;;;5.07;;
81697;SDS011;71109;52.514;5.708;2024-02-26T08:13:26;13.20;;;6.03;;
81697;SDS011;71109;52.514;5.708;2024-02-26T08:15:52;9.90;;;5.25;;
81697;SDS011;71109;52.514;5.708;2024-02-26T08:18:17;11.40;;;5.03;;
81697;SDS011;71109;52.514;5.708;2024-02-26T08:20:44;11.98;;;5.65;;
81697;SDS011;71109;52.514;5.708;2024-02-26T08:23:09;12.55;;;5.25;;
81697;SDS011;71109;52.514;5.708;2024-02-26T08:25:34;10.97;;;5.13;;
81697;SDS011;71109;52.514;5.708;2024-02-26T08:28:00;9.30;;;4.87;;
81697;SDS011;71109;52.514;5.708;2024-02-26T08:30:25;11.50;;;4.60;;
81697;SDS011;71109;52.514;5.708;2024-02-26T08:32:51;12.70;;;4.25;;
81697;SDS011;71109;52.514;5.708;2024-02-26T08:35:17;7.05;;;4.28;;
81697;SDS011;71109;52.514;5.708;2024-02-26T08:37:46;10.15;;;4.88;;
81697;SDS011;71109;52.514;5.708;2024-02-26T08:40:12;9.35;;;4.45;;
81697;SDS011;71109;52.514;5.708;2024-02-26T08:42:37;12.32;;;5.20;;
81697;SDS011;71109;52.514;5.708;2024-02-26T08:45:03;9.32;;;4.68;;
81697;SDS011;71109;52.514;5.708;2024-02-26T08:47:28;13.45;;;5.72;;
81697;SDS011;71109;52.514;5.708;2024-02-26T08:49:54;10.38;;;4.57;;
81697;SDS011;71109;52.514;5.708;2024-02-26T08:52:19;9.00;;;4.68;;
81697;SDS011;71109;52.514;5.708;2024-02-26T08:54:46;11.00;;;5.55;;
81697;SDS011;71109;52.514;5.708;2024-02-26T08:57:12;11.75;;;4.88;;
81697;SDS011;71109;52.514;5.708;2024-02-26T08:59:37;7.37;;;3.33;;
81697;SDS011;71109;52.514;5.708;2024-02-26T09:02:03;9.57;;;4.33;;
81697;SDS011;71109;52.514;5.708;2024-02-26T09:04:28;12.45;;;4.68;;
81697;SDS011;71109;52.514;5.708;2024-02-26T09:06:53;10.07;;;5.20;;
81697;SDS011;71109;52.514;5.708;2024-02-26T09:09:19;8.13;;;4.53;;
81697;SDS011;71109;52.514;5.708;2024-02-26T09:11:45;11.80;;;5.88;;
81697;SDS011;71109;52.514;5.708;2024-02-26T09:14:11;8.63;;;4.72;;
81697;SDS011;71109;52.514;5.708;2024-02-26T09:16:36;9.07;;;5.00;;
81697;SDS011;71109;52.514;5.708;2024-02-26T09:19:02;12.53;;;4.90;;
81697;SDS011;71109;52.514;5.708;2024-02-26T09:21:27;6.97;;;3.33;;
81697;SDS011;71109;52.514;5.708;2024-02-26T09:23:53;11.15;;;4.85;;
81697;SDS011;71109;52.514;5.708;2024-02-26T09:26:18;9.82;;;5.55;;
81697;SDS011;71109;52.514;5.708;2024-02-26T09:28:44;8.33;;;5.03;;
81697;SDS011;71109;52.514;5.708;2024-02-26T09:31:10;8.35;;;4.28;;
81697;SDS011;71109;52.514;5.708;2024-02-26T09:33:35;10.38;;;5.15;;
81697;SDS011;71109;52.514;5.708;2024-02-26T09:36:01;10.07;;;5.20;;
81697;SDS011;71109;52.514;5.708;2024-02-26T09:38:26;12.00;;;5.55;;
81697;SDS011;71109;52.514;5.708;2024-02-26T09:40:52;11.52;;;4.75;;
81697;SDS011;71109;52.514;5.708;2024-02-26T09:43:19;11.25;;;4.65;;
81697;SDS011;71109;52.514;5.708;2024-02-26T09:45:47;10.90;;;5.97;;
81697;SDS011;71109;52.514;5.708;2024-02-26T09:48:12;9.27;;;5.03;;
81697;SDS011;71109;52.514;5.708;2024-02-26T09:50:40;10.38;;;5.05;;
81697;SDS011;71109;52.514;5.708;2024-02-26T09:53:08;13.70;;;6.60;;
81697;SDS011;71109;52.514;5.708;2024-02-26T09:55:35;10.57;;;5.43;;
81697;SDS011;71109;52.514;5.708;2024-02-26T09:58:00;10.35;;;5.80;;
81697;SDS011;71109;52.514;5.708;2024-02-26T10:00:27;14.50;;;7.07;;
81697;SDS011;71109;52.514;5.708;2024-02-26T10:02:58;11.45;;;5.68;;
81697;SDS011;71109;52.514;5.708;2024-02-26T10:05:29;14.63;;;6.75;;
81697;SDS011;71109;52.514;5.708;2024-02-26T10:07:55;14.00;;;6.68;;
81697;SDS011;71109;52.514;5.708;2024-02-26T10:10:22;12.82;;;4.65;;
81697;SDS011;71109;52.514;5.708;2024-02-26T10:12:48;10.90;;;5.25;;
81697;SDS011;71109;52.514;5.708;2024-02-26T10:15:14;10.02;;;6.07;;
81697;SDS011;71109;52.514;5.708;2024-02-26T10:17:39;11.27;;;5.47;;
81697;SDS011;71109;52.514;5.708;2024-02-26T10:20:15;9.00;;;4.72;;
81697;SDS011;71109;52.514;5.708;2024-02-26T10:22:42;10.63;;;5.28;;
81697;SDS011;71109;52.514;5.708;2024-02-26T10:25:08;12.00;;;5.28;;
81697;SDS011;71109;52.514;5.708;2024-02-26T10:27:34;12.80;;;5.40;;
81697;SDS011;71109;52.514;5.708;2024-02-26T10:30:23;13.52;;;4.50;;
81697;SDS011;71109;52.514;5.708;2024-02-26T10:32:51;10.50;;;5.05;;
81697;SDS011;71109;52.514;5.708;2024-02-26T10:35:17;8.27;;;4.78;;
81697;SDS011;71109;52.514;5.708;2024-02-26T10:37:45;7.38;;;4.22;;
81697;SDS011;71109;52.514;5.708;2024-02-26T10:40:11;12.35;;;5.32;;
81697;SDS011;71109;52.514;5.708;2024-02-26T10:42:39;9.45;;;4.38;;
81697;SDS011;71109;52.514;5.708;2024-02-26T10:45:06;11.73;;;4.63;;
81697;SDS011;71109;52.514;5.708;2024-02-26T10:47:31;11.40;;;5.07;;
81697;SDS011;71109;52.514;5.708;2024-02-26T10:49:58;13.25;;;4.40;;
81697;SDS011;71109;52.514;5.708;2024-02-26T10:52:24;9.80;;;4.88;;
81697;SDS011;71109;52.514;5.708;2024-02-26T10:54:51;6.70;;;3.80;;
81697;SDS011;71109;52.514;5.708;2024-02-26T10:57:19;9.25;;;4.28;;
81697;SDS011;71109;52.514;5.708;2024-02-26T10:59:44;7.18;;;3.97;;
81697;SDS011;71109;52.514;5.708;2024-02-26T11:02:10;9.90;;;5.53;;
81697;SDS011;71109;52.514;5.708;2024-02-26T11:04:37;7.90;;;4.70;;
81697;SDS011;71109;52.514;5.708;2024-02-26T11:07:03;10.38;;;4.10;;
81697;SDS011;71109;52.514;5.708;2024-02-26T11:09:29;7.38;;;4.03;;
81697;SDS011;71109;52.514;5.708;2024-02-26T11:11:55;11.10;;;4.47;;
81697;SDS011;71109;52.514;5.708;2024-02-26T11:14:22;6.75;;;4.50;;
81697;SDS011;71109;52.514;5.708;2024-02-26T11:16:50;5.97;;;3.05;;
81697;SDS011;71109;52.514;5.708;2024-02-26T11:19:16;6.60;;;3.42;;
81697;SDS011;71109;52.514;5.708;2024-02-26T11:21:42;8.52;;;4.88;;
81697;SDS011;71109;52.514;5.708;2024-02-26T11:24:11;12.00;;;4.78;;
81697;SDS011;71109;52.514;5.708;2024-02-26T11:26:54;8.90;;;4.47;;
81697;SDS011;71109;52.514;5.708;2024-02-26T11:29:24;9.43;;;3.67;;
81697;SDS011;71109;52.514;5.708;2024-02-26T11:31:52;8.60;;;3.58;;
81697;SDS011;71109;52.514;5.708;2024-02-26T11:34:17;9.57;;;4.72;;
81697;SDS011;71109;52.514;5.708;2024-02-26T11:36:43;7.70;;;3.45;;
81697;SDS011;71109;52.514;5.708;2024-02-26T11:39:10;8.18;;;4.68;;
81697;SDS011;71109;52.514;5.708;2024-02-26T11:41:37;6.88;;;3.65;;
81697;SDS011;71109;52.514;5.708;2024-02-26T11:44:03;8.43;;;4.78;;
81697;SDS011;71109;52.514;5.708;2024-02-26T11:46:41;8.63;;;4.38;;
81697;SDS011;71109;52.514;5.708;2024-02-26T11:51:55;10.80;;;4.05;;
81697;SDS011;71109;52.514;5.708;2024-02-26T11:59:53;6.40;;;3.45;;
81697;SDS011;71109;52.514;5.708;2024-02-26T12:05:16;7.07;;;4.22;;
81697;SDS011;71109;52.514;5.708;2024-02-26T12:10:14;6.47;;;3.38;;
81697;SDS011;71109;52.514;5.708;2024-02-26T12:15:46;7.07;;;3.88;;
81697;SDS011;71109;52.514;5.708;2024-02-26T12:18:23;7.05;;;4.38;;
81697;SDS011;71109;52.514;5.708;2024-02-26T12:21:01;7.28;;;3.80;;
81697;SDS011;71109;52.514;5.708;2024-02-26T12:23:27;8.68;;;3.58;;
81697;SDS011;71109;52.514;5.708;2024-02-26T12:25:53;8.30;;;4.95;;
81697;SDS011;71109;52.514;5.708;2024-02-26T12:28:19;9.27;;;4.32;;
81697;SDS011;71109;52.514;5.708;2024-02-26T12:30:44;4.70;;;3.43;;
81697;SDS011;71109;52.514;5.708;2024-02-26T12:33:09;6.63;;;3.80;;
81697;SDS011;71109;52.514;5.708;2024-02-26T12:35:35;8.90;;;4.38;;
81697;SDS011;71109;52.514;5.708;2024-02-26T12:38:01;6.50;;;3.75;;
81697;SDS011;71109;52.514;5.708;2024-02-26T12:40:28;7.75;;;3.50;;
81697;SDS011;71109;52.514;5.708;2024-02-26T12:42:54;5.63;;;3.20;;
81697;SDS011;71109;52.514;5.708;2024-02-26T12:45:22;5.65;;;3.85;;
81697;SDS011;71109;52.514;5.708;2024-02-26T12:47:48;5.95;;;3.47;;
81697;SDS011;71109;52.514;5.708;2024-02-26T12:50:16;8.35;;;4.20;;
81697;SDS011;71109;52.514;5.708;2024-02-26T12:52:46;6.68;;;3.72;;
81697;SDS011;71109;52.514;5.708;2024-02-26T12:55:16;9.52;;;4.13;;
81697;SDS011;71109;52.514;5.708;2024-02-26T12:57:44;6.72;;;3.40;;
81697;SDS011;71109;52.514;5.708;2024-02-26T13:00:11;10.07;;;3.70;;
81697;SDS011;71109;52.514;5.708;2024-02-26T13:02:39;9.23;;;4.15;;
81697;SDS011;71109;52.514;5.708;2024-02-26T13:05:06;5.50;;;3.35;;
81697;SDS011;71109;52.514;5.708;2024-02-26T13:07:32;5.55;;;3.03;;
81697;SDS011;71109;52.514;5.708;2024-02-26T13:09:58;6.57;;;3.50;;
81697;SDS011;71109;52.514;5.708;2024-02-26T13:12:23;7.03;;;3.85;;
81697;SDS011;71109;52.514;5.708;2024-02-26T13:14:58;9.07;;;3.33;;
81697;SDS011;71109;52.514;5.708;2024-02-26T13:17:24;6.20;;;3.10;;
81697;SDS011;71109;52.514;5.708;2024-02-26T13:19:53;5.25;;;2.67;;
81697;SDS011;71109;52.514;5.708;2024-02-26T13:22:20;4.60;;;2.85;;
81697;SDS011;71109;52.514;5.708;2024-02-26T13:24:52;7.18;;;3.38;;
81697;SDS011;71109;52.514;5.708;2024-02-26T13:27:22;5.97;;;2.88;;
81697;SDS011;71109;52.514;5.708;2024-02-26T13:29:48;6.25;;;3.05;;
81697;SDS011;71109;52.514;5.708;2024-02-26T13:32:13;4.77;;;2.33;;
81697;SDS011;71109;52.514;5.708;2024-02-26T13:34:38;7.10;;;2.90;;
81697;SDS011;71109;52.514;5.708;2024-02-26T13:37:04;4.50;;;2.45;;
81697;SDS011;71109;52.514;5.708;2024-02-26T13:39:30;6.38;;;2.70;;
81697;SDS011;71109;52.514;5.708;2024-02-26T13:41:55;5.55;;;2.63;;
81697;SDS011;71109;52.514;5.708;2024-02-26T13:44:22;5.47;;;3.03;;
81697;SDS011;71109;52.514;5.708;2024-02-26T13:46:48;5.65;;;2.60;;
81697;SDS011;71109;52.514;5.708;2024-02-26T13:49:14;5.18;;;3.03;;
81697;SDS011;71109;52.514;5.708;2024-02-26T13:51:40;6.32;;;2.25;;
81697;SDS011;71109;52.514;5.708;2024-02-26T13:54:06;4.13;;;2.70;;
81697;SDS011;71109;52.514;5.708;2024-02-26T13:56:32;4.20;;;2.45;;
81697;SDS011;71109;52.514;5.708;2024-02-26T13:58:57;4.13;;;2.80;;
81697;SDS011;71109;52.514;5.708;2024-02-26T14:01:23;6.90;;;3.00;;
81697;SDS011;71109;52.514;5.708;2024-02-26T14:03:49;5.00;;;2.72;;
81697;SDS011;71109;52.514;5.708;2024-02-26T14:06:14;5.57;;;3.28;;
81697;SDS011;71109;52.514;5.708;2024-02-26T14:08:40;6.72;;;3.25;;
81697;SDS011;71109;52.514;5.708;2024-02-26T14:11:05;6.30;;;3.27;;
81697;SDS011;71109;52.514;5.708;2024-02-26T14:13:31;5.50;;;3.17;;
81697;SDS011;71109;52.514;5.708;2024-02-26T14:15:56;5.75;;;2.90;;
81697;SDS011;71109;52.514;5.708;2024-02-26T14:18:21;6.22;;;3.58;;
81697;SDS011;71109;52.514;5.708;2024-02-26T14:20:47;6.30;;;3.88;;
81697;SDS011;71109;52.514;5.708;2024-02-26T14:23:12;10.10;;;3.20;;
81697;SDS011;71109;52.514;5.708;2024-02-26T14:25:37;11.57;;;4.00;;
81697;SDS011;71109;52.514;5.708;2024-02-26T14:28:03;8.13;;;3.70;;
81697;SDS011;71109;52.514;5.708;2024-02-26T14:30:28;7.10;;;3.45;;
81697;SDS011;71109;52.514;5.708;2024-02-26T14:32:54;8.65;;;4.47;;
81697;SDS011;71109;52.514;5.708;2024-02-26T14:35:20;7.32;;;3.83;;
81697;SDS011;71109;52.514;5.708;2024-02-26T14:37:45;7.38;;;3.78;;
81697;SDS011;71109;52.514;5.708;2024-02-26T14:40:15;10.57;;;4.82;;
81697;SDS011;71109;52.514;5.708;2024-02-26T14:42:40;8.32;;;4.43;;